createdAt,value
2023-01-02T00:00:02.366Z,101263.88
2023-01-02T00:02:03.830Z,101251.53
2023-01-02T00:04:05.425Z,101256.78
2023-01-02T00:06:07.374Z,101239.19
2023-01-02T00:08:08.930Z,101238.28
2023-01-02T00:10:10.590Z,101231.25
2023-01-02T00:12:12.041Z,101228.63
2023-01-02T00:14:13.566Z,101225.06
2023-01-02T00:16:15.060Z,101224.19
2023-01-02T00:18:16.532Z,101218.91
2023-01-02T00:20:18.076Z,101210.09
2023-01-02T00:22:19.531Z,101206.59
2023-01-02T00:24:21.375Z,101205.72
2023-01-02T00:26:22.855Z,101200.44
2023-01-02T00:28:24.679Z,101198.69
2023-01-02T00:30:27.499Z,101197.84
2023-01-02T00:32:31.444Z,101185.56
2023-01-02T00:34:32.893Z,101173.22
2023-01-02T00:36:34.440Z,101178.50
2023-01-02T00:38:38.290Z,101176.72
2023-01-02T00:40:40.250Z,101176.72
2023-01-02T00:42:42.605Z,101174.06
2023-01-02T00:44:44.144Z,101167.91
2023-01-02T00:46:45.638Z,101164.38
2023-01-02T00:48:47.228Z,101168.78
2023-01-02T00:50:49.691Z,101160.88
2023-01-02T00:52:51.162Z,101155.59
2023-01-02T00:54:52.604Z,101145.97
2023-01-02T00:56:54.055Z,101137.13
2023-01-02T00:58:55.552Z,101132.75
2023-01-02T01:00:57.118Z,101140.69
2023-01-02T01:02:59.747Z,101139.03
2023-01-02T01:05:01.268Z,101144.38
2023-01-02T01:07:03.444Z,101153.19
2023-01-02T01:09:04.945Z,101136.44
2023-01-02T01:11:07.432Z,101134.66
2023-01-02T01:13:08.911Z,101124.06
2023-01-02T01:15:10.859Z,101123.16
2023-01-02T01:17:12.348Z,101117.00
2023-01-02T01:19:14.020Z,101107.25
2023-01-02T01:21:20.141Z,101100.22
2023-01-02T01:23:23.180Z,101097.56
2023-01-02T01:25:24.651Z,101095.84
2023-01-02T01:27:26.237Z,101087.91
2023-01-02T01:29:27.700Z,101091.47
2023-01-02T01:31:29.194Z,101089.75
2023-01-02T01:33:32.051Z,101095.09
2023-01-02T01:35:34.356Z,101091.56
2023-01-02T01:37:38.759Z,101095.09
2023-01-02T01:39:40.246Z,101095.13
2023-01-02T01:41:41.804Z,101104.78
2023-01-02T01:43:50.069Z,101097.72
2023-01-02T01:45:51.601Z,101095.09
2023-01-02T01:47:56.907Z,101095.03
2023-01-02T01:50:10.408Z,101092.38
2023-01-02T01:52:16.049Z,101098.47
2023-01-02T01:54:24.913Z,101096.75
2023-01-02T01:56:27.587Z,101106.38
2023-01-02T01:58:35.874Z,101101.09
2023-01-02T02:00:40.534Z,101108.09
2023-01-02T02:02:46.475Z,101098.38
2023-01-02T02:04:48.211Z,101108.03
2023-01-02T02:06:51.477Z,101104.44
2023-01-02T02:09:09.400Z,101099.13
2023-01-02T02:11:13.346Z,101094.69
2023-01-02T02:13:15.445Z,101098.16
2023-01-02T02:15:21.730Z,101092.78
2023-01-02T02:17:41.581Z,101082.16
2023-01-02T02:19:59.156Z,101071.56
2023-01-02T02:22:15.800Z,101074.16
2023-01-02T02:24:28.474Z,101077.66
2023-01-02T02:26:41.078Z,101079.41
2023-01-02T02:28:55.546Z,101068.78
2023-01-02T02:31:38.991Z,101066.13
2023-01-02T02:34:12.830Z,101064.34
2023-01-02T02:36:21.701Z,101059.81
2023-01-02T02:38:39.133Z,101062.41
2023-01-02T02:41:02.499Z,101043.88
2023-01-02T02:43:35.013Z,101041.97
2023-01-02T02:45:54.770Z,101039.91
2023-01-02T02:48:05.512Z,101045.00
2023-01-02T02:50:46.045Z,101045.56
2023-01-02T02:52:56.748Z,101043.63
2023-01-02T02:55:10.739Z,101029.34
2023-01-02T02:57:13.557Z,101043.25
2023-01-02T02:59:15.143Z,101039.47
2023-01-02T03:01:18.990Z,101041.91
2023-01-02T03:03:23.815Z,101048.84
2023-01-02T03:05:40.014Z,101044.31
2023-01-02T03:07:49.425Z,101032.75
2023-01-02T03:10:04.641Z,101032.69
2023-01-02T03:12:27.279Z,101025.50
2023-01-02T03:14:45.521Z,101037.78
2023-01-02T03:16:50.963Z,101032.44
2023-01-02T03:18:57.857Z,101033.22
2023-01-02T03:21:48.964Z,101032.19
2023-01-02T03:23:50.432Z,101038.34
2023-01-02T03:25:52.411Z,101026.03
2023-01-02T03:27:59.000Z,101025.13
2023-01-02T03:30:15.015Z,101016.31
2023-01-02T03:32:23.919Z,101020.78
2023-01-02T03:34:30.824Z,101020.88
2023-01-02T03:36:35.198Z,101017.38
2023-01-02T03:38:54.040Z,101019.03
2023-01-02T03:41:21.968Z,101025.19
2023-01-02T03:43:30.566Z,101028.63
2023-01-02T03:45:36.514Z,101027.78
2023-01-02T03:48:16.240Z,101022.38
2023-01-02T03:50:23.491Z,101024.13
2023-01-02T03:52:26.237Z,101023.25
2023-01-02T03:54:29.412Z,101031.09
2023-01-02T03:56:33.932Z,101032.81
2023-01-02T03:58:43.353Z,101026.63
2023-01-02T04:00:56.637Z,101025.72
2023-01-02T04:03:14.372Z,101026.63
2023-01-02T04:05:23.698Z,101025.81
2023-01-02T04:07:37.259Z,101026.72
2023-01-02T04:09:41.220Z,101032.91
2023-01-02T04:11:47.264Z,101031.19
2023-01-02T04:13:54.353Z,101036.53
2023-01-02T04:15:57.471Z,101031.28
2023-01-02T04:18:19.878Z,101026.03
2023-01-02T04:20:26.559Z,101023.44
2023-01-02T04:22:36.605Z,101025.22
2023-01-02T04:24:43.435Z,101025.28
2023-01-02T04:26:50.129Z,101034.97
2023-01-02T04:28:52.081Z,101029.75
2023-01-02T04:31:22.586Z,101032.47
2023-01-02T04:33:25.794Z,101031.66
2023-01-02T04:35:27.717Z,101029.94
2023-01-02T04:37:34.806Z,101034.38
2023-01-02T04:39:37.732Z,101032.59
2023-01-02T04:41:40.419Z,101032.53
2023-01-02T04:43:41.889Z,101039.59
2023-01-02T04:45:43.350Z,101037.00
2023-01-02T04:47:45.047Z,101036.09
2023-01-02T04:49:46.524Z,101038.75
2023-01-02T04:51:47.975Z,101037.81
2023-01-02T04:53:53.412Z,101036.09
2023-01-02T04:55:57.047Z,101035.22
2023-01-02T04:57:58.676Z,101035.13
2023-01-02T05:00:00.154Z,101025.44
2023-01-02T05:02:01.928Z,101026.28
2023-01-02T05:04:03.596Z,101025.41
2023-01-02T05:06:05.394Z,101029.84
2023-01-02T05:08:10.658Z,101025.41
2023-01-02T05:10:15.430Z,101022.75
2023-01-02T05:12:16.872Z,101030.72
2023-01-02T05:14:18.310Z,101021.91
2023-01-02T05:16:19.801Z,101028.94
2023-01-02T05:18:21.314Z,101036.00
2023-01-02T05:20:22.901Z,101025.47
2023-01-02T05:22:42.926Z,101030.75
2023-01-02T05:24:44.397Z,101028.06
2023-01-02T05:26:45.844Z,101022.78
2023-01-02T05:28:47.279Z,101025.44
2023-01-02T05:30:49.644Z,101026.28
2023-01-02T05:32:51.222Z,101026.22
2023-01-02T05:34:52.686Z,101013.00
2023-01-02T05:36:54.172Z,101019.06
2023-01-02T05:38:56.090Z,101027.00
2023-01-02T05:41:06.227Z,101027.88
2023-01-02T05:43:07.686Z,101025.19
2023-01-02T05:45:09.541Z,101034.03
2023-01-02T05:47:16.227Z,101034.88
2023-01-02T05:49:18.058Z,101028.72
2023-01-02T05:51:20.562Z,101028.69
2023-01-02T05:53:22.051Z,101031.28
2023-01-02T05:55:23.527Z,101033.84
2023-01-02T05:57:24.988Z,101032.09
2023-01-02T05:59:26.438Z,101036.53
2023-01-02T06:01:30.422Z,101032.09
2023-01-02T06:03:32.020Z,101032.09
2023-01-02T06:05:34.803Z,101030.31
2023-01-02T06:07:36.281Z,101022.38
2023-01-02T06:09:37.807Z,101024.13
2023-01-02T06:11:39.276Z,101023.19
2023-01-02T06:13:40.850Z,101009.09
2023-01-02T06:15:42.355Z,101015.28
2023-01-02T06:17:43.894Z,101016.19
2023-01-02T06:19:51.887Z,101020.47
2023-01-02T06:21:55.437Z,101014.25
2023-01-02T06:24:00.198Z,101023.00
2023-01-02T06:26:24.407Z,101021.28
2023-01-02T06:28:25.872Z,101028.41
2023-01-02T06:30:27.335Z,101026.63
2023-01-02T06:32:29.496Z,101027.44
2023-01-02T06:34:31.028Z,101021.22
2023-01-02T06:36:34.407Z,101031.72
2023-01-02T06:38:36.344Z,101019.34
2023-01-02T06:40:37.792Z,101039.50
2023-01-02T06:42:39.383Z,101034.22
2023-01-02T06:44:40.923Z,101037.69
2023-01-02T06:46:42.358Z,101037.69
2023-01-02T06:48:44.017Z,101030.63
2023-01-02T06:50:45.964Z,101038.50
2023-01-02T06:52:47.399Z,101026.94
2023-01-02T06:54:48.863Z,101025.16
2023-01-02T06:56:50.301Z,101031.25
2023-01-02T06:58:51.825Z,101026.84
2023-01-02T07:00:53.361Z,101028.63
2023-01-02T07:02:54.862Z,101020.63
2023-01-02T07:04:56.371Z,101026.78
2023-01-02T07:06:57.841Z,101024.16
2023-01-02T07:08:59.315Z,101033.75
2023-01-02T07:11:26.985Z,101030.31
2023-01-02T07:13:28.443Z,101035.53
2023-01-02T07:15:30.252Z,101028.47
2023-01-02T07:17:33.099Z,101025.78
2023-01-02T07:19:34.569Z,101019.56
2023-01-02T07:21:36.100Z,101022.22
2023-01-02T07:23:38.235Z,101022.22
2023-01-02T07:25:44.366Z,101020.34
2023-01-02T07:27:46.302Z,101019.47
2023-01-02T07:29:47.813Z,101028.28
2023-01-02T07:31:49.286Z,101026.53
2023-01-02T07:33:50.765Z,101029.19
2023-01-02T07:35:52.239Z,101040.75
2023-01-02T07:37:53.706Z,101037.19
2023-01-02T07:39:55.143Z,101040.66
2023-01-02T07:41:56.603Z,101044.97
2023-01-02T07:43:58.053Z,101046.75
2023-01-02T07:46:04.151Z,101044.09
2023-01-02T07:48:05.754Z,101059.06
2023-01-02T07:50:07.514Z,101059.94
2023-01-02T07:52:10.080Z,101060.81
2023-01-02T07:54:11.518Z,101063.34
2023-01-02T07:56:12.968Z,101066.00
2023-01-02T07:58:14.421Z,101066.81
2023-01-02T08:00:18.166Z,101067.69
2023-01-02T08:02:19.694Z,101070.28
2023-01-02T08:04:21.277Z,101075.59
2023-01-02T08:06:22.780Z,101079.09
2023-01-02T08:08:24.269Z,101078.19
2023-01-02T08:10:25.802Z,101086.13
2023-01-02T08:12:27.805Z,101088.66
2023-01-02T08:14:29.309Z,101088.63
2023-01-02T08:16:30.957Z,101093.91
2023-01-02T08:18:32.692Z,101093.00
2023-01-02T08:20:34.208Z,101093.81
2023-01-02T08:22:35.944Z,101098.19
2023-01-02T08:24:37.888Z,101096.41
2023-01-02T08:26:39.428Z,101091.97
2023-01-02T08:28:41.885Z,101100.84
2023-01-02T08:30:43.520Z,101093.78
2023-01-02T08:32:45.056Z,101105.19
2023-01-02T08:34:46.502Z,101100.75
2023-01-02T08:36:47.991Z,101100.75
2023-01-02T08:38:49.478Z,101105.19
2023-01-02T08:40:51.143Z,101112.22
2023-01-02T08:42:53.588Z,101109.50
2023-01-02T08:44:55.064Z,101115.63
2023-01-02T08:46:56.529Z,101120.00
2023-01-02T08:48:58.170Z,101114.63
2023-01-02T08:50:59.643Z,101119.03
2023-01-02T08:53:01.135Z,101119.84
2023-01-02T08:55:05.552Z,101127.69
2023-01-02T08:57:07.001Z,101128.50
2023-01-02T08:59:11.828Z,101131.09
2023-01-02T09:01:13.304Z,101134.56
2023-01-02T09:03:14.851Z,101122.28
2023-01-02T09:05:16.443Z,101124.03
2023-01-02T09:07:17.907Z,101144.25
2023-01-02T09:09:19.371Z,101138.03
2023-01-02T09:11:25.905Z,101143.22
2023-01-02T09:13:27.348Z,101146.69
2023-01-02T09:15:28.831Z,101156.31
2023-01-02T09:17:30.839Z,101151.78
2023-01-02T09:19:32.353Z,101157.09
2023-01-02T09:21:34.073Z,101149.09
2023-01-02T09:23:35.833Z,101159.69
2023-01-02T09:25:37.357Z,101161.47
2023-01-02T09:27:38.810Z,101175.63
2023-01-02T09:29:40.297Z,101170.34
2023-01-02T09:31:42.043Z,101177.38
2023-01-02T09:33:45.129Z,101178.28
2023-01-02T09:35:46.611Z,101184.47
2023-01-02T09:37:48.084Z,101188.03
2023-01-02T09:39:49.547Z,101187.09
2023-01-02T09:41:54.241Z,101192.41
2023-01-02T09:44:38.669Z,101190.72
2023-01-02T09:46:49.579Z,101196.97
2023-01-02T09:48:51.158Z,101197.94
2023-01-02T09:50:52.639Z,101204.34
2023-01-02T09:52:57.709Z,101193.88
2023-01-02T09:54:59.976Z,101213.47
2023-01-02T09:57:22.640Z,101214.53
2023-01-02T09:59:35.354Z,101226.19
2023-01-02T10:01:54.561Z,101221.03
2023-01-02T10:04:25.067Z,101230.84
2023-01-02T10:06:44.690Z,101246.72
2023-01-02T10:08:58.401Z,101249.38
2023-01-02T10:11:35.900Z,101255.50
2023-01-02T10:14:17.875Z,101244.03
2023-01-02T10:16:20.016Z,101259.97
2023-01-02T10:18:47.683Z,101265.22
2023-01-02T10:20:57.255Z,101268.88
2023-01-02T10:23:08.630Z,101275.16
2023-01-02T10:25:16.559Z,101274.44
2023-01-02T10:27:24.129Z,101292.19
2023-01-02T10:29:33.553Z,101301.06
2023-01-02T10:31:43.603Z,101303.75
2023-01-02T10:33:51.222Z,101314.41
2023-01-02T10:36:01.225Z,101318.94
2023-01-02T10:38:03.075Z,101325.16
2023-01-02T10:40:05.132Z,101313.91
2023-01-02T10:42:09.739Z,101323.78
2023-01-02T10:44:22.191Z,101333.63
2023-01-02T10:46:23.736Z,101336.47
2023-01-02T10:48:30.225Z,101337.50
2023-01-02T10:50:44.969Z,101335.88
2023-01-02T10:52:50.319Z,101344.81
2023-01-02T10:54:59.641Z,101358.13
2023-01-02T10:57:01.768Z,101357.44
2023-01-02T10:59:04.213Z,101371.09
2023-01-02T11:01:18.338Z,101385.50
2023-01-02T11:03:27.543Z,101389.34
2023-01-02T11:05:31.220Z,101392.28
2023-01-02T11:07:36.140Z,101388.97
2023-01-02T11:09:37.686Z,101396.13
2023-01-02T11:11:49.458Z,101393.50
2023-01-02T11:13:54.986Z,101404.09
2023-01-02T11:16:00.009Z,101407.75
2023-01-02T11:18:11.158Z,101419.34
2023-01-02T11:20:29.365Z,101437.97
2023-01-02T11:22:36.991Z,101442.50
2023-01-02T11:25:01.298Z,101437.34
2023-01-02T11:27:03.139Z,101433.94
2023-01-02T11:29:23.087Z,101434.81
2023-01-02T11:31:24.968Z,101445.38
2023-01-02T11:33:30.508Z,101456.00
2023-01-02T11:35:50.737Z,101466.69
2023-01-02T11:37:52.714Z,101480.88
2023-01-02T11:40:26.773Z,101488.88
2023-01-02T11:42:54.409Z,101485.34
2023-01-02T11:45:15.686Z,101489.81
2023-01-02T11:47:18.509Z,101489.84
2023-01-02T11:49:24.922Z,101497.75
2023-01-02T11:51:28.776Z,101492.47
2023-01-02T11:53:40.615Z,101488.97
2023-01-02T11:55:47.607Z,101495.13
2023-01-02T11:58:02.645Z,101487.19
2023-01-02T12:00:15.765Z,101490.72
2023-01-02T12:02:51.531Z,101490.72
2023-01-02T12:04:53.085Z,101490.78
2023-01-02T12:07:29.136Z,101487.34
2023-01-02T12:09:58.203Z,101490.03
2023-01-02T12:11:59.605Z,101496.22
2023-01-02T12:14:16.346Z,101498.00
2023-01-02T12:16:34.296Z,101518.25
2023-01-02T12:18:51.944Z,101531.47
2023-01-02T12:21:16.784Z,101535.00
2023-01-02T12:23:44.235Z,101533.25
2023-01-02T12:26:09.995Z,101549.09
2023-01-02T12:28:11.462Z,101545.56
2023-01-02T12:30:16.559Z,101551.69
2023-01-02T12:32:55.483Z,101554.31
2023-01-02T12:35:06.049Z,101568.34
2023-01-02T12:37:35.968Z,101570.13
2023-01-02T12:39:55.743Z,101573.59
2023-01-02T12:42:09.699Z,101581.53
2023-01-02T12:44:39.112Z,101578.00
2023-01-02T12:47:05.155Z,101591.13
2023-01-02T12:49:22.496Z,101592.91
2023-01-02T12:52:00.685Z,101598.16
2023-01-02T12:54:18.897Z,101599.03
2023-01-02T12:56:48.324Z,101585.84
2023-01-02T12:59:18.050Z,101579.69
2023-01-02T13:01:26.848Z,101583.22
2023-01-02T13:03:38.703Z,101582.34
2023-01-02T13:05:47.953Z,101589.38
2023-01-02T13:07:54.509Z,101591.97
2023-01-02T13:10:01.418Z,101591.06
2023-01-02T13:12:21.581Z,101601.56
2023-01-02T13:14:30.077Z,101597.16
2023-01-02T13:16:32.268Z,101609.56
2023-01-02T13:19:00.613Z,101610.44
2023-01-02T13:21:26.269Z,101612.22
2023-01-02T13:23:35.672Z,101608.69
2023-01-02T13:25:45.851Z,101613.97
2023-01-02T13:27:49.362Z,101619.28
2023-01-02T13:29:52.892Z,101620.16
2023-01-02T13:31:55.903Z,101632.47
2023-01-02T13:33:57.722Z,101619.34
2023-01-02T13:36:17.580Z,101632.56
2023-01-02T13:38:21.022Z,101628.19
2023-01-02T13:40:28.459Z,101633.53
2023-01-02T13:42:55.093Z,101627.44
2023-01-02T13:44:59.568Z,101634.59
2023-01-02T13:47:17.785Z,101641.69
2023-01-02T13:49:23.636Z,101640.91
2023-01-02T13:51:36.602Z,101641.81
2023-01-02T13:53:45.756Z,101644.47
2023-01-02T13:56:06.825Z,101648.03
2023-01-02T13:58:20.342Z,101655.06
2023-01-02T14:00:37.124Z,101668.22
2023-01-02T14:02:38.755Z,101670.88
2023-01-02T14:04:41.086Z,101679.66
2023-01-02T14:06:53.565Z,101684.91
2023-01-02T14:09:04.476Z,101680.53
2023-01-02T14:11:07.129Z,101686.69
2023-01-02T14:13:12.562Z,101685.81
2023-01-02T14:15:20.493Z,101675.28
2023-01-02T14:17:37.747Z,101679.69
2023-01-02T14:19:39.505Z,101684.94
2023-01-02T14:21:44.085Z,101683.22
2023-01-02T14:24:16.968Z,101678.84
2023-01-02T14:26:25.255Z,101684.09
2023-01-02T14:28:30.277Z,101700.81
2023-01-02T14:30:41.120Z,101701.72
2023-01-02T14:32:46.087Z,101707.84
2023-01-02T14:34:52.548Z,101707.00
2023-01-02T14:36:57.365Z,101696.44
2023-01-02T14:38:59.372Z,101707.88
2023-01-02T14:41:19.465Z,101702.59
2023-01-02T14:43:35.766Z,101699.09
2023-01-02T14:45:44.725Z,101698.25
2023-01-02T14:47:54.422Z,101707.03
2023-01-02T14:49:59.972Z,101714.06
2023-01-02T14:52:07.074Z,101722.84
2023-01-02T14:54:11.617Z,101732.47
2023-01-02T14:56:18.404Z,101736.88
2023-01-02T14:58:38.590Z,101742.16
2023-01-02T15:00:44.365Z,101746.53
2023-01-02T15:02:48.698Z,101753.56
2023-01-02T15:04:57.371Z,101761.44
2023-01-02T15:07:10.427Z,101768.44
2023-01-02T15:09:17.910Z,101763.19
2023-01-02T15:11:41.020Z,101754.38
2023-01-02T15:14:04.740Z,101755.25
2023-01-02T15:16:08.857Z,101749.97
2023-01-02T15:18:23.595Z,101754.38
2023-01-02T15:20:27.673Z,101764.00
2023-01-02T15:22:37.232Z,101762.25
2023-01-02T15:24:39.987Z,101763.13
2023-01-02T15:26:44.710Z,101772.78
2023-01-02T15:29:14.529Z,101771.03
2023-01-02T15:31:16.148Z,101777.19
2023-01-02T15:33:51.055Z,101776.31
2023-01-02T15:36:09.623Z,101776.28
2023-01-02T15:38:22.289Z,101777.19
2023-01-02T15:40:23.720Z,101775.44
2023-01-02T15:42:46.850Z,101780.69
2023-01-02T15:45:06.917Z,101765.75
2023-01-02T15:47:09.806Z,101763.13
2023-01-02T15:49:14.581Z,101780.69
2023-01-02T15:51:18.363Z,101779.81
2023-01-02T15:53:32.049Z,101779.81
2023-01-02T15:55:37.344Z,101786.84
2023-01-02T15:57:46.420Z,101789.47
2023-01-02T15:59:48.312Z,101791.22
2023-01-02T16:01:49.849Z,101785.97
2023-01-02T16:04:02.928Z,101795.63
2023-01-02T16:06:21.192Z,101793.00
2023-01-02T16:08:27.145Z,101793.00
2023-01-02T16:10:29.820Z,101794.75
2023-01-02T16:12:31.706Z,101793.91
2023-01-02T16:14:55.762Z,101793.91
2023-01-02T16:17:24.745Z,101800.06
2023-01-02T16:19:31.113Z,101800.97
2023-01-02T16:21:32.927Z,101802.72
2023-01-02T16:23:37.569Z,101807.13
2023-01-02T16:25:45.403Z,101804.50
2023-01-02T16:28:04.327Z,101804.50
2023-01-02T16:30:25.688Z,101804.53
2023-01-02T16:32:32.159Z,101815.94
2023-01-02T16:34:36.153Z,101816.81
2023-01-02T16:36:37.630Z,101814.19
2023-01-02T16:38:46.931Z,101822.97
2023-01-02T16:41:01.379Z,101824.72
2023-01-02T16:43:07.067Z,101831.75
2023-01-02T16:45:08.972Z,101822.09
2023-01-02T16:47:10.523Z,101830.00
2023-01-02T16:49:15.164Z,101837.91
2023-01-02T16:51:16.895Z,101844.91
2023-01-02T16:53:30.223Z,101845.81
2023-01-02T16:55:31.812Z,101842.31
2023-01-02T16:57:33.295Z,101846.72
2023-01-02T16:59:36.027Z,101852.84
2023-01-02T17:01:37.763Z,101863.38
2023-01-02T17:03:39.379Z,101856.34
2023-01-02T17:05:45.549Z,101862.47
2023-01-02T17:07:47.097Z,101865.97
2023-01-02T17:09:48.541Z,101871.25
2023-01-02T17:12:07.775Z,101867.72
2023-01-02T17:14:09.537Z,101876.50
2023-01-02T17:16:11.155Z,101874.75
2023-01-02T17:18:13.419Z,101872.13
2023-01-02T17:20:15.625Z,101880.03
2023-01-02T17:22:17.143Z,101874.75
2023-01-02T17:24:19.042Z,101877.38
2023-01-02T17:26:21.498Z,101885.31
2023-01-02T17:28:23.056Z,101890.56
2023-01-02T17:30:25.719Z,101887.06
2023-01-02T17:32:27.225Z,101887.09
2023-01-02T17:34:28.690Z,101884.47
2023-01-02T17:36:33.399Z,101880.09
2023-01-02T17:38:34.852Z,101894.16
2023-01-02T17:40:37.290Z,101888.91
2023-01-02T17:42:39.108Z,101896.81
2023-01-02T17:44:40.588Z,101903.84
2023-01-02T17:47:15.408Z,101918.78
2023-01-02T17:49:03.519Z,101922.28
2023-01-02T17:51:05.263Z,101925.81
2023-01-02T17:53:07.044Z,101933.69
2023-01-02T17:55:09.231Z,101939.84
2023-01-02T17:57:11.463Z,101931.06
2023-01-02T17:59:14.020Z,101944.25
2023-01-02T18:01:20.595Z,101951.28
2023-01-02T18:03:22.279Z,101947.78
2023-01-02T18:05:23.834Z,101941.63
2023-01-02T18:07:25.347Z,101948.69
2023-01-02T18:09:27.019Z,101936.44
2023-01-02T18:11:28.562Z,101937.31
2023-01-02T18:13:30.209Z,101935.53
2023-01-02T18:15:31.762Z,101929.38
2023-01-02T18:17:33.243Z,101929.41
2023-01-02T18:19:37.633Z,101932.03
2023-01-02T18:21:39.127Z,101933.78
2023-01-02T18:23:41.577Z,101936.41
2023-01-02T18:25:43.244Z,101947.81
2023-01-02T18:27:45.638Z,101946.94
2023-01-02T18:29:57.430Z,101951.31
2023-01-02T18:31:59.217Z,101953.94
2023-01-02T18:34:11.391Z,101962.72
2023-01-02T18:36:24.525Z,101972.34
2023-01-02T18:38:36.550Z,101964.41
2023-01-02T18:40:38.864Z,101971.44
2023-01-02T18:42:42.252Z,101979.31
2023-01-02T18:44:44.434Z,101982.81
2023-01-02T18:47:03.990Z,101980.19
2023-01-02T18:49:29.205Z,101984.53
2023-01-02T18:51:30.778Z,101998.56
2023-01-02T18:53:39.201Z,101993.28
2023-01-02T18:55:40.787Z,102001.16
2023-01-02T18:57:55.564Z,102000.28
2023-01-02T19:00:13.389Z,101999.38
2023-01-02T19:02:30.142Z,102018.66
2023-01-02T19:04:36.159Z,102014.22
2023-01-02T19:06:45.639Z,102022.97
2023-01-02T19:08:47.199Z,102019.47
2023-01-02T19:10:51.338Z,102025.59
2023-01-02T19:13:07.336Z,102023.84
2023-01-02T19:15:31.531Z,102038.72
2023-01-02T19:17:34.787Z,102031.72
2023-01-02T19:19:40.562Z,102040.47
2023-01-02T19:21:42.746Z,102053.59
2023-01-02T19:23:46.357Z,102056.22
2023-01-02T19:25:49.515Z,102062.31
2023-01-02T19:27:53.689Z,102064.97
2023-01-02T19:29:55.635Z,102065.84
2023-01-02T19:32:10.759Z,102073.72
2023-01-02T19:34:23.770Z,102075.47
2023-01-02T19:36:40.147Z,102080.72
2023-01-02T19:38:41.745Z,102079.81
2023-01-02T19:40:43.168Z,102078.94
2023-01-02T19:42:44.731Z,102077.16
2023-01-02T19:44:48.798Z,102082.41
2023-01-02T19:46:50.232Z,102079.75
2023-01-02T19:48:51.731Z,102082.38
2023-01-02T19:50:53.244Z,102091.09
2023-01-02T19:52:54.862Z,102098.09
2023-01-02T19:54:57.492Z,102093.72
2023-01-02T19:56:59.314Z,102107.66
2023-01-02T19:59:00.857Z,102109.38
2023-01-02T20:01:02.390Z,102111.09
2023-01-02T20:03:04.593Z,102115.47
2023-01-02T20:05:06.349Z,102111.97
2023-01-02T20:07:08.336Z,102111.94
2023-01-02T20:09:09.941Z,102117.19
2023-01-02T20:11:31.456Z,102118.03
2023-01-02T20:13:32.936Z,102125.88
2023-01-02T20:15:34.443Z,102125.84
2023-01-02T20:17:37.512Z,102136.34
2023-01-02T20:19:39.396Z,102141.56
2023-01-02T20:21:40.870Z,102136.31
2023-01-02T20:23:42.328Z,102153.81
2023-01-02T20:25:43.775Z,102152.94
2023-01-02T20:27:45.352Z,102159.94
2023-01-02T20:29:47.894Z,102158.19
2023-01-02T20:31:49.798Z,102166.94
2023-01-02T20:33:52.254Z,102174.84
2023-01-02T20:35:53.726Z,102173.97
2023-01-02T20:37:55.259Z,102177.44
2023-01-02T20:39:57.017Z,102177.44
2023-01-02T20:41:58.585Z,102180.94
2023-01-02T20:44:00.125Z,102182.69
2023-01-02T20:46:01.730Z,102181.81
2023-01-02T20:48:03.474Z,102187.06
2023-01-02T20:50:05.856Z,102197.56
2023-01-02T20:52:07.898Z,102198.44
2023-01-02T20:54:10.732Z,102209.81
2023-01-02T20:56:12.203Z,102206.31
2023-01-02T20:58:13.898Z,102215.06
2023-01-02T21:00:16.222Z,102221.19
2023-01-02T21:02:17.780Z,102224.69
2023-01-02T21:04:22.741Z,102225.56
2023-01-02T21:06:30.642Z,102231.66
2023-01-02T21:08:32.287Z,102240.41
2023-01-02T21:10:34.817Z,102252.66
2023-01-02T21:12:54.691Z,102245.63
2023-01-02T21:14:56.176Z,102249.13
2023-01-02T21:16:58.626Z,102250.00
2023-01-02T21:19:00.367Z,102256.09
2023-01-02T21:21:05.585Z,102254.38
2023-01-02T21:23:07.496Z,102255.22
2023-01-02T21:25:09.077Z,102259.59
2023-01-02T21:27:13.225Z,102259.53
2023-01-02T21:29:14.984Z,102263.03
2023-01-02T21:31:18.960Z,102264.75
2023-01-02T21:33:23.197Z,102273.41
2023-01-02T21:35:25.389Z,102269.03
2023-01-02T21:37:26.837Z,102276.91
2023-01-02T21:39:28.324Z,102276.00
2023-01-02T21:41:48.188Z,102276.00
2023-01-02T21:43:49.754Z,102279.44
2023-01-02T21:45:51.202Z,102287.34
2023-01-02T21:47:52.733Z,102285.56
2023-01-02T21:49:54.185Z,102291.66
2023-01-02T21:51:55.702Z,102295.97
2023-01-02T21:53:57.212Z,102304.69
2023-01-02T21:55:58.745Z,102309.94
2023-01-02T21:58:12.958Z,102311.69
2023-01-02T22:00:18.442Z,102315.13
2023-01-02T22:02:22.226Z,102314.19
2023-01-02T22:04:28.221Z,102316.81
2023-01-02T22:06:33.950Z,102323.75
2023-01-02T22:08:35.486Z,102331.59
2023-01-02T22:10:37.072Z,102327.19
2023-01-02T22:12:38.745Z,102334.19
2023-01-02T22:14:40.272Z,102328.06
2023-01-02T22:16:41.738Z,102338.50
2023-01-02T22:18:43.233Z,102340.25
2023-01-02T22:20:44.673Z,102347.16
2023-01-02T22:22:46.171Z,102348.94
2023-01-02T22:24:48.898Z,102349.78
2023-01-02T22:26:52.040Z,102354.09
2023-01-02T22:28:55.569Z,102356.72
2023-01-02T22:30:57.869Z,102361.91
2023-01-02T22:32:59.389Z,102370.59
2023-01-02T22:35:02.311Z,102367.06
2023-01-02T22:37:03.981Z,102374.91
2023-01-02T22:41:30.830Z,102380.09
2023-01-02T22:43:36.932Z,102376.56
2023-01-02T22:45:49.698Z,102378.28
2023-01-02T22:47:51.622Z,102381.75
2023-01-02T22:49:53.981Z,102379.09
2023-01-02T22:52:06.985Z,102383.41
2023-01-02T22:54:13.745Z,102386.03
2023-01-02T22:56:18.130Z,102380.78
2023-01-02T22:58:20.075Z,102387.72
2023-01-02T23:00:23.099Z,102396.44
2023-01-02T23:02:24.618Z,102393.78
2023-01-02T23:04:26.214Z,102394.63
2023-01-02T23:06:28.538Z,102394.59
2023-01-02T23:08:30.016Z,102399.81
2023-01-02T23:10:31.578Z,102397.19
2023-01-02T23:12:33.020Z,102402.41
2023-01-02T23:14:34.498Z,102409.34
2023-01-02T23:16:55.887Z,102408.44
2023-01-02T23:19:15.997Z,102414.47
2023-01-02T23:21:17.598Z,102410.94
2023-01-02T23:23:19.051Z,102410.97
2023-01-02T23:25:20.745Z,102415.34
2023-01-02T23:27:22.206Z,102420.56
2023-01-02T23:29:25.427Z,102427.56
2023-01-02T23:31:27.066Z,102430.22
2023-01-02T23:33:28.583Z,102435.50
2023-01-02T23:35:30.164Z,102434.63
2023-01-02T23:37:31.682Z,102434.59
2023-01-02T23:39:34.351Z,102441.59
2023-01-02T23:41:35.881Z,102452.91
2023-01-02T23:43:37.435Z,102447.69
2023-01-02T23:45:39.017Z,102458.22
2023-01-02T23:47:40.532Z,102463.47
2023-01-02T23:49:42.147Z,102464.41
2023-01-02T23:51:44.433Z,102460.09
2023-01-02T23:53:45.897Z,102456.63
2023-01-02T23:55:47.355Z,102461.88
2023-01-02T23:57:48.797Z,102462.75
2023-01-02T23:59:50.277Z,102461.84
